Time;durP1;ratioP1;P1;durP2;ratioP2;P2;SDS_P1;SDS_P2;PMS_P1;PMS_P2;Temp;Humidity;BMP_temperature;BMP_pressure;BME280_temperature;BME280_humidity;BME280_pressure;Samples;Min_cycle;Max_cycle;Signal;HPM_P1;HPM_P2
2022/04/19 00:02:56;;;;;;;6.18;5.43;;;;;;;5.70;100.00;99797.94;4217494;22;10000665;-65
2022/04/19 00:05:22;;;;;;;6.00;4.78;;;;;;;5.23;100.00;99768.16;5035006;28;20059;-64
2022/04/19 00:07:47;;;;;;;6.68;4.10;;;;;;;5.32;100.00;99758.84;5050580;28;20033;-64
2022/04/19 00:10:13;;;;;;;4.55;3.78;;;;;;;5.88;100.00;99804.47;5050219;28;20033;-64
2022/04/19 00:12:38;;;;;;;5.95;3.28;;;;;;;5.32;100.00;99746.25;5050099;28;20033;-64
2022/04/19 00:15:05;;;;;;;4.68;3.10;;;;;;;5.38;100.00;99758.78;5050138;28;20029;-64
2022/04/19 00:17:31;;;;;;;4.47;3.33;;;;;;;5.49;100.00;99795.63;5033297;28;20026;-64
2022/04/19 00:19:57;;;;;;;5.03;3.40;;;;;;;5.97;100.00;99786.69;5033217;28;20029;-64
2022/04/19 00:22:22;;;;;;;4.50;3.42;;;;;;;5.39;100.00;99742.84;5034684;28;20487;-64
2022/04/19 00:24:48;;;;;;;8.00;3.88;;;;;;;5.50;100.00;99776.31;5033106;28;20483;-64
2022/04/19 00:27:13;;;;;;;4.10;2.85;;;;;;;5.27;100.00;99751.31;5034174;28;20192;-64
2022/04/19 00:29:41;;;;;;;3.38;2.72;;;;;;;4.82;100.00;99701.41;5033828;28;20655;-64
2022/04/19 00:32:11;;;;;;;5.53;2.60;;;;;;;5.33;100.00;99786.53;5034255;28;20137;-64
2022/04/19 00:34:38;;;;;;;5.97;2.17;;;;;;;5.18;100.00;99711.13;5033823;28;20371;-64
2022/04/19 00:37:04;;;;;;;2.95;2.40;;;;;;;5.45;100.00;99778.06;5034017;28;20029;-64
2022/04/19 00:39:30;;;;;;;3.00;1.90;;;;;;;5.07;100.00;99702.88;5032622;28;20083;-64
2022/04/19 00:41:56;;;;;;;2.30;1.77;;;;;;;5.47;100.00;99773.81;5033802;28;20491;-64
2022/04/19 00:44:23;;;;;;;5.35;2.38;;;;;;;5.72;100.00;99775.22;5033456;28;20030;-64
2022/04/19 00:46:51;;;;;;;3.05;2.03;;;;;;;5.04;100.00;99733.94;5034070;28;20025;-64
2022/04/19 00:49:17;;;;;;;2.67;1.50;;;;;;;5.39;100.00;99786.47;5033921;28;20881;-64
2022/04/19 00:51:46;;;;;;;2.10;1.80;;;;;;;5.42;100.00;99780.59;5034080;28;20040;-64
2022/04/19 00:54:14;;;;;;;2.53;1.88;;;;;;;5.29;100.00;99744.59;5032366;28;20041;-64
2022/04/19 00:56:40;;;;;;;2.63;1.80;;;;;;;5.52;100.00;99785.53;5033230;28;20513;-64
2022/04/19 00:59:09;;;;;;;2.83;2.13;;;;;;;4.94;100.00;99769.28;5038327;28;20035;-64
2022/04/19 01:01:37;;;;;;;2.95;1.98;;;;;;;5.29;100.00;99734.50;5052046;28;20039;-64
2022/04/19 01:04:02;;;;;;;3.55;1.95;;;;;;;4.95;100.00;99682.84;5053409;28;20043;-64
2022/04/19 01:06:29;;;;;;;2.28;1.83;;;;;;;5.40;100.00;99765.50;5053869;28;20029;-64
2022/04/19 01:08:54;;;;;;;2.42;1.70;;;;;;;4.97;100.00;99722.25;5053448;28;20035;-64
2022/04/19 01:14:05;;;;;;;4.50;1.90;;;;;;;5.33;100.00;99768.91;5051748;28;20044;-64
2022/04/19 01:16:31;;;;;;;3.90;2.50;;;;;;;4.67;100.00;99684.78;5053385;28;20025;-64
2022/04/19 01:18:57;;;;;;;3.78;2.67;;;;;;;5.56;100.00;99778.75;5053217;28;20029;-64
2022/04/19 01:21:27;;;;;;;3.60;3.17;;;;;;;4.98;100.00;99705.47;5053058;28;20033;-64
2022/04/19 01:23:52;;;;;;;2.75;2.33;;;;;;;5.44;100.00;99764.59;5052923;28;20025;-64
2022/04/19 01:26:18;;;;;;;3.28;2.50;;;;;;;5.02;100.00;99714.66;5051256;28;20090;-63
2022/04/19 01:28:43;;;;;;;3.28;2.10;;;;;;;5.04;100.00;99725.53;5052990;28;20418;-63
2022/04/19 01:31:10;;;;;;;3.33;2.05;;;;;;;5.29;100.00;99742.06;5051833;28;20120;-63
2022/04/19 01:33:36;;;;;;;2.85;1.67;;;;;;;5.01;100.00;99713.00;5051569;28;20033;-63
2022/04/19 01:36:01;;;;;;;3.60;1.60;;;;;;;5.11;100.00;99745.63;5051405;28;20078;-64
2022/04/19 01:38:27;;;;;;;2.60;1.52;;;;;;;5.00;100.00;99694.53;5051333;28;20021;-64
2022/04/19 01:40:52;;;;;;;2.90;1.70;;;;;;;4.94;100.00;99684.50;5052957;28;20410;-63
2022/04/19 01:43:19;;;;;;;2.22;1.60;;;;;;;4.77;100.00;99730.84;5052478;28;20029;-64
2022/04/19 01:45:45;;;;;;;3.78;1.83;;;;;;;5.10;100.00;99721.28;5051426;28;20990;-64
2022/04/19 01:48:11;;;;;;;2.55;1.90;;;;;;;4.92;100.00;99681.19;5052552;28;20028;-64
2022/04/19 01:50:38;;;;;;;3.72;1.95;;;;;;;5.29;100.00;99778.19;5052482;28;20489;-64
2022/04/19 01:53:04;;;;;;;2.42;2.05;;;;;;;5.22;100.00;99731.25;5051062;28;20122;-64
2022/04/19 01:55:29;;;;;;;4.93;1.95;;;;;;;5.25;100.00;99758.06;5051042;28;20517;-63
2022/04/19 01:57:59;;;;;;;3.85;2.20;;;;;;;5.49;100.00;99785.53;5052419;28;20578;-64
2022/04/19 02:00:26;;;;;;;3.00;2.10;;;;;;;5.49;100.00;99775.47;5051277;28;20033;-63
2022/04/19 02:02:55;;;;;;;3.15;2.10;;;;;;;5.14;100.00;99729.66;5050722;28;20049;-63
2022/04/19 02:05:20;;;;;;;3.75;2.28;;;;;;;5.17;100.00;99755.63;5052203;28;20119;-63
2022/04/19 02:07:46;;;;;;;3.47;2.60;;;;;;;5.16;100.00;99769.09;5051921;28;20159;-63
2022/04/19 02:10:14;;;;;;;4.28;3.35;;;;;;;5.25;100.00;99769.00;5052152;28;20094;-63
2022/04/19 02:12:40;;;;;;;8.05;6.90;;;;;;;5.51;100.00;99725.88;5052203;28;20028;-63
2022/04/19 02:15:07;;;;;;;4.78;3.80;;;;;;;5.33;100.00;99717.69;5051985;28;20082;-63
2022/04/19 02:17:33;;;;;;;8.93;5.97;;;;;;;4.96;100.00;99699.59;5050511;28;20090;-64
2022/04/19 02:20:05;;;;;;;10.25;7.18;;;;;;;5.75;100.00;99782.72;5051735;28;20033;-64
2022/04/19 02:22:31;;;;;;;9.73;7.05;;;;;;;5.51;100.00;99735.09;5052082;28;20406;-63
2022/04/19 02:24:58;;;;;;;11.20;9.65;;;;;;;5.51;100.00;99762.81;5052167;28;20529;-63
2022/04/19 02:27:28;;;;;;;12.80;10.40;;;;;;;5.39;100.00;99770.56;5051928;28;20115;-63
2022/04/19 02:29:56;;;;;;;9.75;6.90;;;;;;;5.37;100.00;99782.34;5051955;28;20060;-62
2022/04/19 02:32:23;;;;;;;5.40;3.83;;;;;;;5.15;100.00;99722.06;5050391;28;20025;-63
2022/04/19 02:34:49;;;;;;;5.95;2.58;;;;;;;5.41;100.00;99751.22;5050102;28;20032;-62
2022/04/19 02:37:16;;;;;;;3.45;2.20;;;;;;;5.65;100.00;99768.56;5049510;28;20032;-63
2022/04/19 02:39:41;;;;;;;3.92;3.35;;;;;;;5.27;100.00;99768.97;5051964;28;20028;-63
2022/04/19 02:42:08;;;;;;;3.47;2.30;;;;;;;5.19;100.00;99753.09;5051963;28;20055;-63
2022/04/19 02:44:34;;;;;;;3.78;2.60;;;;;;;5.21;100.00;99779.09;5050031;28;20025;-62
2022/04/19 02:47:02;;;;;;;3.17;2.60;;;;;;;5.34;100.00;99778.16;5045563;28;20044;-63
2022/04/19 02:49:27;;;;;;;2.80;2.42;;;;;;;5.25;100.00;99778.22;5050733;28;20174;-62
2022/04/19 02:51:55;;;;;;;4.07;2.50;;;;;;;5.65;100.00;99779.47;5051651;28;20044;-62
2022/04/19 02:54:21;;;;;;;5.97;3.63;;;;;;;5.55;100.00;99782.94;5042190;28;20565;-63
2022/04/19 02:56:47;;;;;;;5.47;3.35;;;;;;;5.47;100.00;99771.31;5050569;28;20032;-62
2022/04/19 02:59:13;;;;;;;5.15;2.97;;;;;;;5.04;100.00;99738.97;5041980;28;20052;-62
2022/04/19 03:01:39;;;;;;;4.80;3.20;;;;;;;5.30;100.00;99728.63;5040855;28;20037;-63
2022/04/19 03:04:04;;;;;;;4.82;3.40;;;;;;;5.16;100.00;99731.31;5031234;28;20056;-63
2022/04/19 03:06:30;;;;;;;4.22;2.95;;;;;;;5.23;100.00;99798.41;5030842;28;20036;-62
2022/04/19 03:08:55;;;;;;;4.78;3.80;;;;;;;5.18;100.00;99744.72;5030963;28;20114;-62
2022/04/19 03:11:21;;;;;;;3.92;3.38;;;;;;;4.85;100.00;99752.56;5036348;28;20037;-65
2022/04/19 03:13:46;;;;;;;6.15;3.50;;;;;;;5.12;100.00;99800.19;5036735;28;20115;-62
2022/04/19 03:16:13;;;;;;;4.97;3.25;;;;;;;5.18;100.00;99787.56;5030840;28;20340;-63
2022/04/19 03:18:42;;;;;;;5.70;3.03;;;;;;;5.23;100.00;99802.59;5031190;28;20021;-63
2022/04/19 03:21:11;;;;;;;4.45;3.20;;;;;;;4.85;100.00;99750.06;5032302;28;20099;-64
2022/04/19 03:29:06;;;;;;;4.68;2.70;;;;;;;5.29;100.00;99755.50;5050678;28;20044;-65
2022/04/19 03:31:32;;;;;;;5.80;3.45;;;;;;;5.36;100.00;99804.16;5044596;28;20029;-63
2022/04/19 03:33:58;;;;;;;4.65;3.05;;;;;;;4.87;100.00;99755.09;5029448;28;20061;-64
2022/04/19 03:36:24;;;;;;;5.70;3.25;;;;;;;5.21;100.00;99734.59;5030570;28;20138;-64
2022/04/19 03:38:49;;;;;;;9.93;3.38;;;;;;;5.11;100.00;99722.94;5029130;28;20033;-65
2022/04/19 03:41:14;;;;;;;4.32;3.60;;;;;;;5.44;100.00;99816.69;5030655;28;20033;-65
2022/04/19 03:43:41;;;;;;;6.00;3.38;;;;;;;4.54;100.00;99725.16;5029160;28;20037;-65
2022/04/19 03:46:08;;;;;;;9.40;3.20;;;;;;;4.81;100.00;99801.31;5030541;28;20037;-64
2022/04/19 03:48:34;;;;;;;5.55;3.50;;;;;;;4.72;100.00;99750.19;5030437;28;20175;-65
2022/04/19 03:51:00;;;;;;;8.30;4.45;;;;;;;5.06;100.00;99791.84;5030779;28;20033;-66
2022/04/19 03:53:25;;;;;;;5.55;4.00;;;;;;;5.42;100.00;99798.22;5030308;28;20036;-65
2022/04/19 03:55:51;;;;;;;6.47;3.33;;;;;;;5.35;100.00;99804.19;5030211;28;20105;-63
2022/04/19 03:58:16;;;;;;;4.78;3.05;;;;;;;5.14;100.00;99753.16;5036647;28;20029;-65
2022/04/19 04:00:42;;;;;;;4.25;2.80;;;;;;;4.95;100.00;99746.59;5048896;28;20414;-66
2022/04/19 04:03:08;;;;;;;4.78;3.08;;;;;;;5.06;100.00;99822.94;5048758;28;20065;-64
2022/04/19 04:05:34;;;;;;;4.90;2.97;;;;;;;5.11;100.00;99780.06;5050302;28;20032;-64
2022/04/19 04:07:59;;;;;;;4.40;3.03;;;;;;;4.84;100.00;99766.03;5048942;28;20186;-64
2022/04/19 04:10:25;;;;;;;5.10;3.45;;;;;;;5.04;100.00;99733.94;5050088;28;20102;-63
2022/04/19 04:12:50;;;;;;;4.20;3.17;;;;;;;5.20;100.00;99774.94;5049661;28;20032;-65
2022/04/19 04:15:16;;;;;;;5.60;3.95;;;;;;;5.47;100.00;99807.41;5049951;28;20101;-66
2022/04/19 04:17:42;;;;;;;9.27;5.15;;;;;;;5.68;100.00;99813.91;5048982;28;20086;-63
2022/04/19 04:20:08;;;;;;;9.48;6.80;;;;;;;5.79;100.00;99810.41;5050087;28;20029;-63
2022/04/19 04:22:33;;;;;;;8.35;6.90;;;;;;;5.57;100.00;99820.75;5048367;28;20029;-63
2022/04/19 04:24:59;;;;;;;10.48;7.43;;;;;;;5.67;100.00;99817.28;5048691;28;20517;-65
2022/04/19 04:27:24;;;;;;;13.95;10.10;;;;;;;5.67;100.00;99829.88;5056117;28;20041;-66
2022/04/19 04:29:50;;;;;;;17.67;12.40;;;;;;;5.42;100.00;99786.47;5058041;28;20197;-64
2022/04/19 04:32:16;;;;;;;23.05;17.50;;;;;;;5.59;100.00;99803.91;5049905;28;20057;-65
2022/04/19 04:34:42;;;;;;;22.27;16.13;;;;;;;5.83;100.00;99833.91;5050107;28;20064;-64
2022/04/19 04:37:08;;;;;;;21.95;14.85;;;;;;;5.45;100.00;99776.34;5049868;28;20379;-65
2022/04/19 04:39:33;;;;;;;42.40;28.08;;;;;;;5.51;100.00;99767.88;5050364;28;20044;-65
2022/04/19 04:41:58;;;;;;;42.28;30.27;;;;;;;5.51;100.00;99780.47;5049914;28;20102;-68
2022/04/19 04:44:24;;;;;;;36.33;27.63;;;;;;;5.93;100.00;99833.00;5049946;28;20102;-65
2022/04/19 04:49:36;;;;;;;30.38;25.27;;;;;;;4.94;100.00;99750.00;5049069;28;20043;-64
2022/04/19 04:52:08;;;;;;;27.73;19.95;;;;;;;6.03;100.00;99816.88;5049597;28;20029;-65
2022/04/19 04:54:34;;;;;;;26.95;19.10;;;;;;;6.06;100.00;99837.84;5049400;28;20044;-65
2022/04/19 04:57:01;;;;;;;32.28;22.30;;;;;;;5.96;100.00;99850.63;5046776;28;20124;-65
2022/04/19 04:59:26;;;;;;;27.73;16.77;;;;;;;6.08;100.00;99858.06;5049992;28;20068;-65
2022/04/19 05:01:52;;;;;;;31.55;21.88;;;;;;;6.51;100.00;99868.44;5051683;28;20073;-65
2022/04/19 05:04:18;;;;;;;27.23;18.50;;;;;;;6.14;100.00;99812.53;5053377;28;20033;-65
2022/04/19 05:06:43;;;;;;;26.02;16.15;;;;;;;6.59;100.00;99861.59;5051978;28;20021;-66
2022/04/19 05:09:09;;;;;;;17.65;13.18;;;;;;;6.31;100.00;99818.22;5052992;28;20521;-64
2022/04/19 05:11:34;;;;;;;10.95;7.47;;;;;;;7.44;100.00;99807.97;5052974;28;20036;-67
2022/04/19 05:14:00;;;;;;;15.65;5.60;;;;;;;5.98;100.00;99796.75;5052645;28;20811;-65
2022/04/19 05:16:25;;;;;;;12.00;6.00;;;;;;;6.40;100.00;99814.72;5052765;28;20056;-66
2022/04/19 05:18:50;;;;;;;9.40;5.88;;;;;;;6.05;100.00;99821.06;5051076;28;20021;-66
2022/04/19 05:21:16;;;;;;;12.80;7.55;;;;;;;6.44;100.00;99875.25;5051352;28;20128;-65
2022/04/19 05:23:41;;;;;;;10.65;6.60;;;;;;;6.03;100.00;99825.28;5052703;28;20037;-66
2022/04/19 05:26:07;;;;;;;8.82;5.68;;;;;;;6.25;100.00;99866.25;5052883;28;20048;-66
2022/04/19 05:28:32;;;;;;;6.70;4.97;;;;;;;6.07;100.00;99853.84;5053051;28;20052;-65
2022/04/19 05:30:58;;;;;;;8.13;4.80;;;;;;;6.08;100.00;99875.72;5052870;28;20486;-65
2022/04/19 05:33:23;;;;;;;10.27;5.18;;;;;;;6.11;100.00;99841.19;4698633;28;9999738;-65
2022/04/19 05:35:49;;;;;;;7.72;5.53;;;;;;;6.11;100.00;99898.38;5048751;28;20035;-64
2022/04/19 05:38:14;;;;;;;7.10;4.97;;;;;;;6.03;100.00;99869.88;5049711;28;20033;-65
2022/04/19 05:40:40;;;;;;;9.05;5.70;;;;;;;6.50;100.00;99874.31;5049531;28;20121;-64
2022/04/19 05:43:06;;;;;;;6.50;4.80;;;;;;;6.61;100.00;99887.66;5049415;28;20060;-64
2022/04/19 05:45:32;;;;;;;9.23;5.65;;;;;;;6.56;100.00;99869.19;5048863;28;20065;-65
2022/04/19 05:47:57;;;;;;;10.63;5.07;;;;;;;6.55;100.00;99882.69;5047988;28;20120;-64
2022/04/19 05:50:23;;;;;;;7.85;5.32;;;;;;;6.29;100.00;99840.09;5049165;28;20060;-65
2022/04/19 05:52:48;;;;;;;11.02;5.70;;;;;;;6.75;100.00;99909.34;5048860;28;20033;-65
2022/04/19 05:55:14;;;;;;;6.28;4.82;;;;;;;6.44;100.00;99895.44;5048940;28;20477;-66
2022/04/19 05:57:39;;;;;;;6.53;4.75;;;;;;;6.11;100.00;99913.50;5049099;28;20025;-66
2022/04/19 06:00:05;;;;;;;7.07;5.22;;;;;;;5.68;100.00;99827.38;5049483;28;20032;-66
2022/04/19 06:05:14;;;;;;;7.03;5.35;;;;;;;6.28;100.00;99910.81;5048840;28;20039;-66
2022/04/19 06:07:45;;;;;;;6.22;5.50;;;;;;;6.41;100.00;99898.00;5047783;28;20051;-66
2022/04/19 06:10:11;;;;;;;5.80;4.72;;;;;;;6.28;100.00;99910.81;5047953;28;20033;-66
2022/04/19 06:12:36;;;;;;;7.18;5.13;;;;;;;5.87;100.00;99843.16;5047184;28;20517;-66
2022/04/19 06:15:02;;;;;;;8.55;5.30;;;;;;;6.10;100.00;99889.97;5046661;28;20037;-66
2022/04/19 06:17:32;;;;;;;14.43;9.70;;;;;;;6.18;100.00;99926.91;5046954;28;20038;-65
2022/04/19 06:19:58;;;;;;;13.65;9.20;;;;;;;6.39;100.00;99916.56;5048029;28;20036;-66
2022/04/19 06:22:23;;;;;;;11.32;8.50;;;;;;;6.02;100.00;99883.34;5048524;28;20037;-66
2022/04/19 06:24:49;;;;;;;10.35;7.55;;;;;;;6.49;100.00;99925.69;5046567;28;20025;-68
2022/04/19 06:27:14;;;;;;;7.32;5.65;;;;;;;5.87;100.00;99891.06;5046563;28;20040;-66
2022/04/19 06:29:39;;;;;;;9.30;6.00;;;;;;;6.28;100.00;99898.19;5047032;28;20425;-69
2022/04/19 06:32:05;;;;;;;9.93;5.93;;;;;;;6.55;100.00;99944.13;5047666;28;20437;-67
2022/04/19 06:34:31;;;;;;;9.93;6.45;;;;;;;6.05;100.00;99879.09;5049220;28;20037;-67
2022/04/19 06:36:56;;;;;;;8.88;5.93;;;;;;;6.27;100.00;99926.78;5050529;28;20551;-66
2022/04/19 06:39:21;;;;;;;7.93;5.72;;;;;;;6.25;100.00;99873.81;5050422;28;20560;-66
2022/04/19 06:41:47;;;;;;;9.00;6.32;;;;;;;6.74;100.00;99943.03;5050629;28;20028;-66
2022/04/19 06:44:13;;;;;;;7.40;5.70;;;;;;;6.37;100.00;99920.78;5051571;28;20028;-67
2022/04/19 06:46:38;;;;;;;8.45;6.22;;;;;;;6.60;100.00;99936.47;5050284;28;20116;-67
2022/04/19 06:49:06;;;;;;;9.82;7.35;;;;;;;6.72;100.00;99942.22;5051103;28;20060;-66
2022/04/19 06:51:32;;;;;;;7.38;6.57;;;;;;;5.95;100.00;99880.06;5050812;28;20048;-66
2022/04/19 06:53:58;;;;;;;6.85;6.10;;;;;;;6.37;100.00;99934.25;5050952;28;20033;-67
2022/04/19 06:56:23;;;;;;;8.02;6.63;;;;;;;6.47;100.00;99900.47;5049830;28;20087;-67
2022/04/19 06:58:49;;;;;;;7.32;6.20;;;;;;;6.29;100.00;99941.06;5051243;28;20024;-66
2022/04/19 07:01:14;;;;;;;8.30;6.90;;;;;;;6.09;100.00;99895.88;5050520;28;20025;-67
2022/04/19 07:03:40;;;;;;;8.52;7.30;;;;;;;6.70;100.00;99946.44;5050594;28;20048;-66
2022/04/19 07:06:06;;;;;;;9.15;7.40;;;;;;;6.14;100.00;99893.28;5049873;28;20090;-66
2022/04/19 07:08:32;;;;;;;11.25;9.20;;;;;;;6.06;100.00;99873.19;5051225;28;20052;-66
2022/04/19 07:10:57;;;;;;;11.05;8.70;;;;;;;6.56;100.00;99930.63;5049570;28;20029;-66
2022/04/19 07:13:24;;;;;;;8.93;7.47;;;;;;;6.13;100.00;99853.78;5051007;28;20033;-67
2022/04/19 07:15:50;;;;;;;13.75;8.77;;;;;;;6.48;100.00;99907.16;5048979;28;20043;-67
2022/04/19 07:18:17;;;;;;;7.45;6.70;;;;;;;6.28;100.00;99916.66;5049412;28;20396;-67
2022/04/19 07:28:54;;;;;;;7.40;6.68;;;;;;;6.43;100.00;99945.97;5050897;28;20417;-67
2022/04/19 07:31:20;;;;;;;10.48;7.40;;;;;;;6.32;100.00;99920.03;5050615;28;20029;-66
2022/04/19 07:33:46;;;;;;;9.35;7.60;;;;;;;6.31;100.00;99954.50;5050615;28;20033;-68
2022/04/19 07:36:12;;;;;;;12.05;8.50;;;;;;;6.49;100.00;99951.78;5050815;28;20032;-66
2022/04/19 07:38:37;;;;;;;9.65;6.43;;;;;;;6.19;100.00;99926.88;5050715;28;20097;-66
2022/04/19 07:41:04;;;;;;;7.93;6.10;;;;;;;6.63;100.00;99921.28;5050543;28;20032;-66
2022/04/19 07:43:30;;;;;;;7.70;6.80;;;;;;;6.37;100.00;99946.88;5050749;28;20562;-67
2022/04/19 07:45:55;;;;;;;9.05;6.38;;;;;;;6.65;100.00;99950.75;5050715;28;20483;-66
2022/04/19 07:48:21;;;;;;;9.02;7.45;;;;;;;6.46;100.00;99956.84;5050221;28;20029;-66
2022/04/19 07:50:46;;;;;;;9.90;7.50;;;;;;;6.80;100.00;99959.78;5049140;28;20025;-67
2022/04/19 07:53:12;;;;;;;16.90;11.55;;;;;;;6.37;100.00;99900.59;5050623;28;20028;-66
2022/04/19 07:55:37;;;;;;;9.30;7.22;;;;;;;7.01;100.00;99967.91;5049650;28;20029;-66
2022/04/19 07:58:03;;;;;;;8.70;7.55;;;;;;;6.38;100.00;99904.81;5050002;28;20055;-68
2022/04/19 08:00:30;;;;;;;12.00;7.78;;;;;;;6.83;100.00;99940.38;5050257;28;20029;-67
2022/04/19 08:02:56;;;;;;;10.75;8.57;;;;;;;6.90;100.00;99914.19;5048760;28;20045;-66
2022/04/19 08:05:26;;;;;;;9.77;7.95;;;;;;;7.22;100.00;99954.16;5050138;28;20044;-66
2022/04/19 08:07:51;;;;;;;10.30;7.88;;;;;;;7.14;100.00;99950.03;5048946;28;20044;-66
2022/04/19 08:10:18;;;;;;;13.73;10.60;;;;;;;6.94;100.00;99899.81;5048819;28;20033;-66
2022/04/19 08:12:44;;;;;;;14.18;10.20;;;;;;;6.94;100.00;99947.81;5048870;28;20033;-66
2022/04/19 08:15:10;;;;;;;18.85;11.85;;;;;;;7.04;100.00;99913.97;5050123;28;20133;-67
2022/04/19 08:17:37;;;;;;;24.33;19.20;;;;;;;7.12;100.00;99960.19;5050488;28;20514;-67
2022/04/19 08:20:03;;;;;;;22.30;16.80;;;;;;;7.13;100.00;99961.84;5050200;28;20025;-67
2022/04/19 08:22:29;;;;;;;25.45;18.58;;;;;;;7.09;100.00;99911.38;5050238;28;20124;-67
2022/04/19 08:24:54;;;;;;;14.95;11.85;;;;;;;6.98;100.00;99922.47;5050215;28;20123;-67
2022/04/19 08:27:20;;;;;;;10.02;8.70;;;;;;;7.10;100.00;99966.13;5049933;28;20048;-67
2022/04/19 08:29:46;;;;;;;10.48;9.38;;;;;;;7.79;100.00;99965.00;5050032;28;20040;-66
2022/04/19 08:32:13;;;;;;;8.88;7.97;;;;;;;7.41;100.00;99968.16;5050233;28;20031;-66
2022/04/19 08:34:39;;;;;;;12.35;8.95;;;;;;;7.01;100.00;99972.16;5050047;28;20029;-66
2022/04/19 08:37:06;;;;;;;28.95;16.13;;;;;;;7.59;100.00;99967.88;5052953;28;20041;-66
2022/04/19 08:39:31;;;;;;;9.57;8.57;;;;;;;7.20;100.00;99970.19;5052481;28;20037;-65
2022/04/19 08:41:57;;;;;;;15.07;10.27;;;;;;;6.94;100.00;99957.91;5053856;28;20056;-67
2022/04/19 08:44:25;;;;;;;14.07;9.57;;;;;;;7.58;100.00;99951.03;5052437;28;20033;-66
2022/04/19 08:46:53;;;;;;;20.85;12.50;;;;;;;7.11;100.00;99963.56;5053978;28;20040;-66
2022/04/19 08:49:20;;;;;;;12.15;9.02;;;;;;;7.38;100.00;99901.63;5053884;28;20029;-67
2022/04/19 08:51:45;;;;;;;12.75;10.07;;;;;;;8.09;100.00;99906.25;5053054;28;20083;-66
2022/04/19 08:59:40;;;;;;;8.75;7.82;;;;;;;7.59;100.00;99960.28;5053159;28;20044;-66
2022/04/19 09:02:06;;;;;;;10.40;7.80;;;;;;;7.12;100.00;99906.25;5052848;28;20486;-66
2022/04/19 09:04:31;;;;;;;9.85;8.88;;;;;;;7.46;100.00;99912.47;5052036;28;20033;-66
2022/04/19 09:06:59;;;;;;;13.48;10.77;;;;;;;7.26;100.00;99915.31;5051963;28;20032;-67
2022/04/19 09:09:30;;;;;;;9.98;8.95;;;;;;;7.12;100.00;99964.41;5052926;28;20029;-66
2022/04/19 09:12:15;;;;;;;9.77;8.77;;;;;;;7.49;100.00;99968.88;5052882;28;20082;-66
2022/04/19 09:15:06;;;;;;;12.07;9.77;;;;;;;7.90;100.00;99960.63;5051178;28;20045;-66
2022/04/19 09:17:36;;;;;;;15.75;11.75;;;;;;;7.17;100.00;99923.03;5046333;28;20154;-66
2022/04/19 09:20:08;;;;;;;13.45;10.75;;;;;;;7.42;100.00;99969.84;5053089;28;20041;-66
2022/04/19 09:22:34;;;;;;;;;;;;;;;7.37;100.00;99969.06;5052101;28;20068;-66
2022/04/19 09:25:20;;;;;;;9.30;8.40;;;;;;;7.18;100.00;99906.16;5053220;28;20413;-66
2022/04/19 09:27:48;;;;;;;10.10;9.07;;;;;;;6.99;100.00;99916.56;5053215;28;20502;-66
2022/04/19 09:30:27;;;;;;;11.10;8.40;;;;;;;7.53;100.00;99973.03;5053024;28;20116;-66
2022/04/19 09:33:09;;;;;;;12.98;10.88;;;;;;;6.72;100.00;99927.06;5053144;28;20029;-66
2022/04/19 09:35:43;;;;;;;11.02;7.90;;;;;;;7.28;100.00;99956.56;5053040;28;20116;-66
2022/04/19 09:38:08;;;;;;;8.93;7.93;;;;;;;7.33;100.00;99979.28;5051122;28;20098;-65
2022/04/19 09:40:41;;;;;;;9.20;8.20;;;;;;;7.59;100.00;99974.63;5052818;28;20029;-66
2022/04/19 09:43:21;;;;;;;7.70;6.72;;;;;;;7.17;100.00;99952.53;5052706;28;20139;-66
2022/04/19 09:45:56;;;;;;;16.38;12.10;;;;;;;7.07;100.00;99984.72;5051336;28;20557;-66
2022/04/19 09:48:24;;;;;;;8.73;7.55;;;;;;;6.81;100.00;99886.50;5052146;28;20120;-67
2022/04/19 09:51:02;;;;;;;9.15;7.72;;;;;;;7.40;100.00;99974.09;5050990;28;20025;-66
2022/04/19 09:53:29;;;;;;;10.50;8.30;;;;;;;7.96;100.00;99973.16;5052465;28;20463;-67
2022/04/19 09:55:57;;;;;;;11.45;8.98;;;;;;;8.07;100.00;99922.34;5052505;28;20025;-66
2022/04/19 09:58:23;;;;;;;8.68;6.80;;;;;;;7.84;100.00;99991.09;5051541;28;20033;-66
2022/04/19 10:00:50;;;;;;;6.65;5.38;;;;;;;7.75;100.00;99936.41;5051986;28;20039;-66
2022/04/19 10:08:54;;;;;;;8.05;6.30;;;;;;;7.83;100.00;99928.69;5041217;28;20044;-65
2022/04/19 10:11:20;;;;;;;9.15;7.05;;;;;;;7.74;100.00;99976.94;4690569;28;10000613;-64
2022/04/19 10:13:46;;;;;;;8.32;6.50;;;;;;;8.00;100.00;99982.38;5027355;28;20368;-64
2022/04/19 10:16:12;;;;;;;11.00;9.10;;;;;;;8.35;100.00;99977.53;5027505;28;20112;-65
2022/04/19 10:18:45;;;;;;;8.88;7.93;;;;;;;8.05;100.00;99929.97;5027328;28;20029;-65
2022/04/19 10:21:15;;;;;;;7.53;6.80;;;;;;;8.59;100.00;99923.84;5038377;28;20051;-66
2022/04/19 10:23:41;;;;;;;8.32;6.53;;;;;;;8.53;100.00;99966.22;5047843;28;20326;-65
2022/04/19 10:26:17;;;;;;;7.07;6.35;;;;;;;8.47;100.00;99976.47;5048112;28;20029;-64
2022/04/19 10:28:45;;;;;;;6.43;5.45;;;;;;;8.29;100.00;99984.41;5048505;28;20454;-64
2022/04/19 10:31:11;;;;;;;7.00;5.55;;;;;;;8.01;100.00;99920.75;5048149;28;20032;-65
2022/04/19 10:33:49;;;;;;;7.25;5.72;;;;;;;8.65;100.00;99979.47;5048487;28;20029;-65
2022/04/19 10:36:16;;;;;;;7.13;6.00;;;;;;;8.70;100.00;99981.88;5047722;28;20025;-66
2022/04/19 10:38:44;;;;;;;6.30;5.65;;;;;;;8.49;100.00;99919.84;5048157;28;20113;-66
2022/04/19 10:41:09;;;;;;;6.57;5.88;;;;;;;8.85;100.00;99978.22;5048219;28;20024;-65
2022/04/19 10:43:35;;;;;;;7.30;6.30;;;;;;;8.34;100.00;99977.56;5047898;28;20103;-65
2022/04/19 10:46:21;;;;;;;5.78;5.07;;;;;;;7.96;100.00;99979.91;5047903;28;20025;-66
2022/04/19 10:49:21;;;;;;;8.48;6.15;;;;;;;8.72;100.00;99977.63;5046396;28;20056;-66
2022/04/19 10:51:47;;;;;;;9.15;6.20;;;;;;;8.32;100.00;99916.78;5047715;28;20564;-66
2022/04/19 10:54:16;;;;;;;8.15;7.35;;;;;;;8.13;100.00;99925.59;5047631;28;20056;-65
2022/04/19 10:58:05;;;;;;;8.95;6.18;;;;;;;8.81;100.00;99921.69;5047909;28;20098;-64
2022/04/19 11:00:27;;;;;;;7.03;5.53;;;;;;;9.28;100.00;99926.50;5046527;28;20037;-64
2022/04/19 11:03:02;;;;;;;8.48;6.32;;;;;;;9.59;100.00;99935.03;5047517;28;20487;-65
2022/04/19 11:05:34;;;;;;;9.02;7.32;;;;;;;9.23;100.00;99980.75;5046208;28;20076;-67
2022/04/19 11:08:18;;;;;;;7.15;6.45;;;;;;;9.58;100.00;99974.00;5047962;28;20029;-65
2022/04/19 11:10:44;;;;;;;6.05;5.18;;;;;;;8.85;100.00;99970.63;5047041;28;20420;-64
2022/04/19 11:13:09;;;;;;;6.22;5.10;;;;;;;9.07;100.00;99954.88;5062588;28;20035;-65
2022/04/19 11:15:37;;;;;;;7.63;6.28;;;;;;;9.16;100.00;99920.88;5047186;28;20087;-64
2022/04/19 11:18:22;;;;;;;7.78;5.60;;;;;;;9.67;100.00;99974.63;5047143;28;20170;-64
2022/04/19 11:20:49;;;;;;;7.90;5.80;;;;;;;9.70;100.00;99908.56;5062459;28;20678;-63
2022/04/19 11:23:24;;;;;;;14.52;9.85;;;;;;;8.90;100.00;99915.56;5047172;28;20032;-63
2022/04/19 11:25:51;;;;;;;5.20;3.75;;;;;;;8.84;100.00;99881.06;5047543;28;20032;-63
2022/04/19 11:28:20;;;;;;;4.40;3.85;;;;;;;9.20;100.00;99897.13;5046768;28;20021;-66
2022/04/19 11:31:06;;;;;;;6.55;4.07;;;;;;;9.95;100.00;99963.75;5047227;28;20112;-65
2022/04/19 11:33:36;;;;;;;5.72;4.35;;;;;;;9.66;100.00;99967.88;5047060;28;20402;-64
2022/04/19 11:36:13;;;;;;;6.15;4.93;;;;;;;9.81;100.00;99957.34;5047352;28;20093;-64
2022/04/19 11:38:42;;;;;;;6.75;5.65;;;;;;;9.46;100.00;99960.75;5062532;28;20422;-64
2022/04/19 11:46:44;;;;;;;6.15;5.55;;;;;;;9.73;100.00;99962.63;5046884;28;20099;-65
2022/04/19 11:49:15;;;;;;;7.75;5.68;;;;;;;10.04;100.00;99955.88;5047039;28;20108;-66
2022/04/19 11:51:44;;;;;;;10.60;7.47;;;;;;;9.72;100.00;99963.50;5047205;28;20040;-64
2022/04/19 11:54:23;;;;;;;8.45;6.65;;;;;;;9.49;100.00;99968.28;5046970;28;20501;-66
2022/04/19 11:56:50;;;;;;;6.63;5.80;;;;;;;9.42;100.00;99890.66;5062325;28;20024;-66
2022/04/19 11:59:16;;;;;;;6.97;5.60;;;;;;;9.61;100.00;99904.53;5046207;28;20029;-65
2022/04/19 12:01:49;;;;;;;7.45;5.38;;;;;;;9.82;100.00;99953.94;5046741;28;20394;-66
2022/04/19 12:04:14;;;;;;;6.32;5.10;;;;;;;9.24;100.00;99954.50;5046864;28;20036;-64
2022/04/19 12:06:46;;;;;;;6.10;5.45;;;;;;;9.66;100.00;99958.56;5045476;28;20036;-64
2022/04/19 12:09:15;;;;;;;8.15;6.50;;;;;;;9.51;100.00;99931.03;5047020;28;20033;-65
2022/04/19 12:11:41;;;;;;;7.15;6.20;;;;;;;9.57;100.00;99951.16;5038594;28;20073;-63